Alyarmouk — 5AWM — position and weather

sailwx.info

Track history (hours):
 
Tides and Currents Weather Stations Pressure Air Temp Water Temp Dewpoint Dewpoint Depression Visibility Wind Speed Wind Dir Waves Ship Positions

Alyarmouk

Last reported at 2017-Dec-11 03:53 UTC. Time now 2017-Dec-11 23:07 UTC.
Position N 33°41' W 118°09'.

Length 249 m; draft 14.6 m.

Type: Tanker. MMSI: 642122009.

Date/timePositionNaut miles runAvg speedWind from/ knotsBaromVisibWave heightAir tempDewpointWater temp
2017-Dec-11 03:53N 33°41' W 118°09'0 0.0
2017-Dec-11 03:17N 33°41' W 118°09'0 0.0
2017-Dec-11 02:59N 33°41' W 118°09'27 3.3
2017-Dec-10 18:48N 33°15' W 118°01'310.9
2017-Dec-10 18:31N 33°12' W 118°00'612.0
2017-Dec-10 18:00N 33°07' W 118°02'510.3
2017-Dec-10 17:30N 33°02' W 118°04'3 5.6
2017-Dec-10 17:00N 32°59' W 118°04'611.9
2017-Dec-10 16:31N 32°53' W 118°06'612.4
2017-Dec-10 16:01N 32°47' W 118°08'612.2
2017-Dec-10 15:31N 32°41' W 118°10'611.2
2017-Dec-10 15:00N 32°38' W 118°16'612.0
2017-Dec-10 14:31N 32°36' W 118°22'612.1
2017-Dec-10 14:01N 32°33' W 118°29'612.0
2017-Dec-10 13:30N 32°30' W 118°35'612.1
2017-Dec-10 12:58N 32°26' W 118°40'612.1
2017-Dec-10 12:30N 32°22' W 118°46'39 1.9
2017-Dec-09 16:11N 32°03' W 119°26'0 0.9
2017-Dec-09 15:57N 32°03' W 119°26'0 0.9
2017-Dec-09 15:25N 32°04' W 119°27'1 0.9
2017-Dec-09 14:16N 32°04' W 119°28'0 0.7
2017-Dec-09 14:01N 32°04' W 119°28'1 1.0
2017-Dec-09 13:31N 32°04' W 119°28'0 0.8
2017-Dec-09 13:01N 32°05' W 119°29'0 0.6
2017-Dec-09 12:31N 32°05' W 119°29'0 0.8
2017-Dec-09 12:00N 32°05' W 119°29'0 0.7
2017-Dec-09 11:31N 32°05' W 119°30'0 0.5
2017-Dec-09 11:01N 32°05' W 119°30'0 0.7
2017-Dec-09 10:31N 32°05' W 119°30'0 0.6
2017-Dec-09 10:00N 32°06' W 119°31'0 0.5
2017-Dec-09 09:31N 32°06' W 119°31'0 0.6
2017-Dec-09 09:01N 32°06' W 119°31'0 0.8
2017-Dec-09 08:31N 32°06' W 119°32'0 0.8
2017-Dec-09 08:00N 32°07' W 119°32'0 0.7
2017-Dec-09 07:30N 32°07' W 119°32'0 0.7
2017-Dec-09 07:00N 32°07' W 119°32'1 1.3
2017-Dec-09 06:30N 32°08' W 119°33'1 2.9
2017-Dec-09 06:00N 32°08' W 119°34'2 4.5
2017-Dec-09 05:31N 32°10' W 119°37'3 5.3
2017-Dec-09 05:01N 32°11' W 119°39'65 7.5
2017-Dec-08 20:24N 32°33' W 118°27'512.8
2017-Dec-08 20:00N 32°35' W 118°22'612.9
2017-Dec-08 19:30N 32°37' W 118°15'612.5
2017-Dec-08 19:01N 32°41' W 118°09'611.8
2017-Dec-08 18:31N 32°46' W 118°06'612.0
2017-Dec-08 18:01N 32°52' W 118°05'612.1
2017-Dec-08 17:30N 32°59' W 118°05'612.1
2017-Dec-08 17:01N 33°04' W 118°05'612.2
2017-Dec-08 16:31N 33°11' W 118°04'611.9
2017-Dec-08 16:00N 33°16' W 118°05'912.1
2017-Dec-08 15:17N 33°25' W 118°09'312.1
2017-Dec-08 15:01N 33°28' W 118°10'1111.0
2017-Dec-08 14:01N 33°39' W 118°12'011.6
2017-Dec-08 14:00N 33°39' W 118°12'  
2017-Dec-03 06:20N 33°46' W 118°13'0 0.0
2017-Dec-03 05:47N 33°46' W 118°13'1 1.9
2017-Dec-03 05:29N 33°46' W 118°13'2 4.7
2017-Dec-03 04:59N 33°44' W 118°12'1 2.4
2017-Dec-03 04:30N 33°44' W 118°10'0 0.0
2017-Dec-03 01:56N 33°44' W 118°10'0 0.0
2017-Dec-02 23:11N 33°44' W 118°10'0 0.0
2017-Dec-02 21:56N 33°44' W 118°10'0 0.0
2017-Dec-02 21:29N 33°44' W 118°10'0 0.0
2017-Dec-02 20:59N 33°44' W 118°10'0 0.0
2017-Dec-02 20:26N 33°44' W 118°10'0 0.0
2017-Dec-02 19:56N 33°44' W 118°10'0 0.1
2017-Dec-02 19:26N 33°44' W 118°10'0 0.1
2017-Dec-02 17:56N 33°44' W 118°10'0 0.0
2017-Dec-02 14:50N 33°44' W 118°10'0 0.0
2017-Dec-02 14:26N 33°44' W 118°10'0 0.1
2017-Dec-02 13:56N 33°44' W 118°10'0 0.1
2017-Dec-02 13:26N 33°44' W 118°10'0 0.0
2017-Dec-02 12:56N 33°44' W 118°10'0 0.0
2017-Dec-02 12:26N 33°44' W 118°10'0 0.1
2017-Dec-02 11:56N 33°44' W 118°10'0 0.1
2017-Dec-02 11:14N 33°44' W 118°10'0 0.0
2017-Dec-02 10:56N 33°44' W 118°10'0 0.1
2017-Dec-02 10:20N 33°44' W 118°10'0 0.0
2017-Dec-02 09:56N 33°44' W 118°10'0 0.0
2017-Dec-02 08:38N 33°44' W 118°10'0 0.0
2017-Dec-02 08:26N 33°44' W 118°10'0 0.0
2017-Dec-02 07:56N 33°44' W 118°10'0 0.0
2017-Dec-02 06:14N 33°44' W 118°10'0 0.0
2017-Dec-02 05:56N 33°44' W 118°10'0 0.1
2017-Dec-02 05:20N 33°44' W 118°10'0 0.1
2017-Dec-02 04:20N 33°44' W 118°10'0 0.1
2017-Dec-02 03:50N 33°44' W 118°10'0 0.0
2017-Dec-02 01:14N 33°44' W 118°10'0 0.0
2017-Dec-02 00:32N 33°44' W 118°10'0 0.0
2017-Dec-02 00:26N 33°44' W 118°10'0 0.0
2017-Dec-01 23:56N 33°44' W 118°10'0 0.1
2017-Dec-01 23:26N 33°44' W 118°10'0 0.0
2017-Dec-01 22:59N 33°44' W 118°10'0 0.0
2017-Dec-01 22:26N 33°44' W 118°10'0 0.0
2017-Dec-01 21:56N 33°44' W 118°10'0 0.1
2017-Dec-01 21:14N 33°44' W 118°10'0 0.0
2017-Dec-01 20:56N 33°44' W 118°10'0 0.0
2017-Dec-01 20:20N 33°44' W 118°10'0 0.0
2017-Dec-01 19:56N 33°44' W 118°10'0 0.0
2017-Dec-01 19:20N 33°44' W 118°10'0 0.0
2017-Dec-01 13:59N 33°44' W 118°10'0 0.1
2017-Dec-01 12:02N 33°44' W 118°10'0 0.1
2017-Dec-01 11:56N 33°44' W 118°10'0 0.0
2017-Dec-01 11:26N 33°44' W 118°10'0 0.1
2017-Dec-01 10:56N 33°44' W 118°10'0 0.1
2017-Dec-01 09:56N 33°44' W 118°10'0 0.1
2017-Dec-01 09:26N 33°44' W 118°10'0 0.0
2017-Dec-01 05:38N 33°44' W 118°10'0 0.0
2017-Dec-01 05:26N 33°44' W 118°10'0 0.0
2017-Dec-01 04:56N 33°44' W 118°10'0 0.0
2017-Dec-01 04:20N 33°44' W 118°10'0 0.0
2017-Dec-01 03:56N 33°44' W 118°10'  
Track history (hours):
 
Tides and Currents Weather Stations Pressure Air Temp Water Temp Dewpoint Dewpoint Depression Visibility Wind Speed Wind Dir Waves Ship Positions

Alyarmouk

Last reported at 2017-Dec-11 03:53 UTC. Time now 2017-Dec-11 23:07 UTC.
Position N 33°41' W 118°09'.

Length 249 m; draft 14.6 m.

Type: Tanker. MMSI: 642122009.

Date/timePositionNaut miles runAvg speedWind from/ knotsBaromVisibWave heightAir tempDewpointWater temp
2017-Dec-11 03:53N 33°41' W 118°09'0 0.0
2017-Dec-11 03:17N 33°41' W 118°09'0 0.0
2017-Dec-11 02:59N 33°41' W 118°09'27 3.3
2017-Dec-10 18:48N 33°15' W 118°01'310.9
2017-Dec-10 18:31N 33°12' W 118°00'612.0
2017-Dec-10 18:00N 33°07' W 118°02'510.3
2017-Dec-10 17:30N 33°02' W 118°04'3 5.6
2017-Dec-10 17:00N 32°59' W 118°04'611.9
2017-Dec-10 16:31N 32°53' W 118°06'612.4
2017-Dec-10 16:01N 32°47' W 118°08'612.2
2017-Dec-10 15:31N 32°41' W 118°10'611.2
2017-Dec-10 15:00N 32°38' W 118°16'612.0
2017-Dec-10 14:31N 32°36' W 118°22'612.1
2017-Dec-10 14:01N 32°33' W 118°29'612.0
2017-Dec-10 13:30N 32°30' W 118°35'612.1
2017-Dec-10 12:58N 32°26' W 118°40'612.1
2017-Dec-10 12:30N 32°22' W 118°46'39 1.9
2017-Dec-09 16:11N 32°03' W 119°26'0 0.9
2017-Dec-09 15:57N 32°03' W 119°26'0 0.9
2017-Dec-09 15:25N 32°04' W 119°27'1 0.9
2017-Dec-09 14:16N 32°04' W 119°28'0 0.7
2017-Dec-09 14:01N 32°04' W 119°28'1 1.0
2017-Dec-09 13:31N 32°04' W 119°28'0 0.8
2017-Dec-09 13:01N 32°05' W 119°29'0 0.6
2017-Dec-09 12:31N 32°05' W 119°29'0 0.8
2017-Dec-09 12:00N 32°05' W 119°29'0 0.7
2017-Dec-09 11:31N 32°05' W 119°30'0 0.5
2017-Dec-09 11:01N 32°05' W 119°30'0 0.7
2017-Dec-09 10:31N 32°05' W 119°30'0 0.6
2017-Dec-09 10:00N 32°06' W 119°31'0 0.5
2017-Dec-09 09:31N 32°06' W 119°31'0 0.6
2017-Dec-09 09:01N 32°06' W 119°31'0 0.8
2017-Dec-09 08:31N 32°06' W 119°32'0 0.8
2017-Dec-09 08:00N 32°07' W 119°32'0 0.7
2017-Dec-09 07:30N 32°07' W 119°32'0 0.7
2017-Dec-09 07:00N 32°07' W 119°32'1 1.3
2017-Dec-09 06:30N 32°08' W 119°33'1 2.9
2017-Dec-09 06:00N 32°08' W 119°34'2 4.5
2017-Dec-09 05:31N 32°10' W 119°37'3 5.3
2017-Dec-09 05:01N 32°11' W 119°39'65 7.5
2017-Dec-08 20:24N 32°33' W 118°27'512.8
2017-Dec-08 20:00N 32°35' W 118°22'612.9
2017-Dec-08 19:30N 32°37' W 118°15'612.5
2017-Dec-08 19:01N 32°41' W 118°09'611.8
2017-Dec-08 18:31N 32°46' W 118°06'612.0
2017-Dec-08 18:01N 32°52' W 118°05'612.1
2017-Dec-08 17:30N 32°59' W 118°05'612.1
2017-Dec-08 17:01N 33°04' W 118°05'612.2
2017-Dec-08 16:31N 33°11' W 118°04'611.9
2017-Dec-08 16:00N 33°16' W 118°05'912.1
2017-Dec-08 15:17N 33°25' W 118°09'312.1
2017-Dec-08 15:01N 33°28' W 118°10'1111.0
2017-Dec-08 14:01N 33°39' W 118°12'011.6
2017-Dec-08 14:00N 33°39' W 118°12'  
2017-Dec-03 06:20N 33°46' W 118°13'0 0.0
2017-Dec-03 05:47N 33°46' W 118°13'1 1.9
2017-Dec-03 05:29N 33°46' W 118°13'2 4.7
2017-Dec-03 04:59N 33°44' W 118°12'1 2.4
2017-Dec-03 04:30N 33°44' W 118°10'0 0.0
2017-Dec-03 01:56N 33°44' W 118°10'0 0.0
2017-Dec-02 23:11N 33°44' W 118°10'0 0.0
2017-Dec-02 21:56N 33°44' W 118°10'0 0.0
2017-Dec-02 21:29N 33°44' W 118°10'0 0.0
2017-Dec-02 20:59N 33°44' W 118°10'0 0.0
2017-Dec-02 20:26N 33°44' W 118°10'0 0.0
2017-Dec-02 19:56N 33°44' W 118°10'0 0.1
2017-Dec-02 19:26N 33°44' W 118°10'0 0.1
2017-Dec-02 17:56N 33°44' W 118°10'0 0.0
2017-Dec-02 14:50N 33°44' W 118°10'0 0.0
2017-Dec-02 14:26N 33°44' W 118°10'0 0.1
2017-Dec-02 13:56N 33°44' W 118°10'0 0.1
2017-Dec-02 13:26N 33°44' W 118°10'0 0.0
2017-Dec-02 12:56N 33°44' W 118°10'0 0.0
2017-Dec-02 12:26N 33°44' W 118°10'0 0.1
2017-Dec-02 11:56N 33°44' W 118°10'0 0.1
2017-Dec-02 11:14N 33°44' W 118°10'0 0.0
2017-Dec-02 10:56N 33°44' W 118°10'0 0.1
2017-Dec-02 10:20N 33°44' W 118°10'0 0.0
2017-Dec-02 09:56N 33°44' W 118°10'0 0.0
2017-Dec-02 08:38N 33°44' W 118°10'0 0.0
2017-Dec-02 08:26N 33°44' W 118°10'0 0.0
2017-Dec-02 07:56N 33°44' W 118°10'0 0.0
2017-Dec-02 06:14N 33°44' W 118°10'0 0.0
2017-Dec-02 05:56N 33°44' W 118°10'0 0.1
2017-Dec-02 05:20N 33°44' W 118°10'0 0.1
2017-Dec-02 04:20N 33°44' W 118°10'0 0.1
2017-Dec-02 03:50N 33°44' W 118°10'0 0.0
2017-Dec-02 01:14N 33°44' W 118°10'0 0.0
2017-Dec-02 00:32N 33°44' W 118°10'0 0.0
2017-Dec-02 00:26N 33°44' W 118°10'0 0.0
2017-Dec-01 23:56N 33°44' W 118°10'0 0.1
2017-Dec-01 23:26N 33°44' W 118°10'0 0.0
2017-Dec-01 22:59N 33°44' W 118°10'0 0.0
2017-Dec-01 22:26N 33°44' W 118°10'0 0.0
2017-Dec-01 21:56N 33°44' W 118°10'0 0.1
2017-Dec-01 21:14N 33°44' W 118°10'0 0.0
2017-Dec-01 20:56N 33°44' W 118°10'0 0.0
2017-Dec-01 20:20N 33°44' W 118°10'0 0.0
2017-Dec-01 19:56N 33°44' W 118°10'0 0.0
2017-Dec-01 19:20N 33°44' W 118°10'0 0.0
2017-Dec-01 13:59N 33°44' W 118°10'0 0.1
2017-Dec-01 12:02N 33°44' W 118°10'0 0.1
2017-Dec-01 11:56N 33°44' W 118°10'0 0.0
2017-Dec-01 11:26N 33°44' W 118°10'0 0.1
2017-Dec-01 10:56N 33°44' W 118°10'0 0.1
2017-Dec-01 09:56N 33°44' W 118°10'0 0.1
2017-Dec-01 09:26N 33°44' W 118°10'0 0.0
2017-Dec-01 05:38N 33°44' W 118°10'0 0.0
2017-Dec-01 05:26N 33°44' W 118°10'0 0.0
2017-Dec-01 04:56N 33°44' W 118°10'0 0.0
2017-Dec-01 04:20N 33°44' W 118°10'0 0.0
2017-Dec-01 03:56N 33°44' W 118°10'  

Dump ship's entire track history